Time;durP1;ratioP1;P1;durP2;ratioP2;P2;SDS_P1;SDS_P2;PMS_P1;PMS_P2;Temp;Humidity;BMP_temperature;BMP_pressure;BME280_temperature;BME280_humidity;BME280_pressure;Samples;Min_cycle;Max_cycle;Signal;HPM_P1;HPM_P2
2023/06/13 00:01:25;;;;;;;;;;;13.90;97.40;;;;;;4915711;29;19953;-72
2023/06/13 00:03:53;;;;;;;;;;;13.90;98.00;;;;;;4925455;29;20729;-73
2023/06/13 00:06:19;;;;;;;;;;;13.80;97.90;;;;;;4933563;29;19922;-73
2023/06/13 00:08:47;;;;;;;;;;;13.80;97.90;;;;;;4929929;29;19910;-73
2023/06/13 00:11:15;;;;;;;;;;;13.90;98.40;;;;;;4906783;29;19917;-73
2023/06/13 00:13:45;;;;;;;;;;;13.80;98.40;;;;;;4908226;29;19914;-73
2023/06/13 00:16:12;;;;;;;;;;;13.80;98.20;;;;;;4927940;29;20006;-72
2023/06/13 00:18:37;;;;;;;;;;;13.80;98.90;;;;;;4939068;28;19910;-73
2023/06/13 00:21:06;;;;;;;;;;;13.80;99.40;;;;;;4932501;29;19914;-73
2023/06/13 00:23:32;;;;;;;;;;;13.70;99.00;;;;;;4934734;29;20586;-73
2023/06/13 00:26:01;;;;;;;;;;;13.70;98.70;;;;;;4930690;29;19919;-73
2023/06/13 00:28:26;;;;;;;;;;;13.70;99.20;;;;;;4929830;29;19915;-73
2023/06/13 00:30:52;;;;;;;;;;;13.70;99.70;;;;;;4931128;29;21455;-73
2023/06/13 00:33:19;;;;;;;;;;;13.60;99.70;;;;;;4927181;29;19915;-73
2023/06/13 00:35:46;;;;;;;;;;;13.60;99.20;;;;;;4936535;29;20651;-73
2023/06/13 00:38:14;;;;;;;;;;;13.60;99.40;;;;;;4930395;29;20005;-72
2023/06/13 00:40:42;;;;;;;;;;;13.60;99.90;;;;;;4931634;29;20404;-73
2023/06/13 00:43:08;;;;;;;;;;;13.50;99.90;;;;;;4923342;29;19914;-72
2023/06/13 00:45:34;;;;;;;;;;;13.50;99.90;;;;;;4934100;29;19917;-73
2023/06/13 00:48:05;;;;;;;;;;;13.50;99.90;;;;;;4932120;29;19914;-73
2023/06/13 00:50:34;;;;;;;;;;;13.40;99.90;;;;;;4932049;29;20010;-72
2023/06/13 00:53:09;;;;;;;;;;;13.50;99.90;;;;;;4930394;29;19970;-73
2023/06/13 00:55:36;;;;;;;;;;;13.40;99.90;;;;;;4933274;29;19914;-73
2023/06/13 00:58:06;;;;;;;;;;;13.40;99.90;;;;;;4938177;29;19922;-72
2023/06/13 01:00:38;;;;;;;;;;;13.40;99.90;;;;;;4928569;29;19919;-73
2023/06/13 01:03:09;;;;;;;;;;;13.40;99.90;;;;;;4928913;29;20472;-73
2023/06/13 01:05:36;;;;;;;;;;;13.30;99.90;;;;;;4931003;29;19915;-72
2023/06/13 01:08:04;;;;;;;;;;;13.30;99.90;;;;;;4934574;29;19934;-73
2023/06/13 01:10:32;;;;;;;;;;;13.30;99.90;;;;;;4947636;28;19911;-73
2023/06/13 01:13:04;;;;;;;;;;;13.30;99.90;;;;;;4933962;28;19953;-72
2023/06/13 01:15:34;;;;;;;;;;;13.30;99.90;;;;;;4943539;28;19957;-73
2023/06/13 01:18:03;;;;;;;;;;;13.20;99.90;;;;;;4926882;29;19918;-73
2023/06/13 01:20:29;;;;;;;;;;;13.20;99.90;;;;;;4927015;29;20262;-71
2023/06/13 01:22:57;;;;;;;;;;;13.20;99.90;;;;;;4937732;29;20002;-73
2023/06/13 01:25:59;;;;;;;;;;;13.10;99.90;;;;;;4929544;29;20712;-73
2023/06/13 01:28:35;;;;;;;;;;;13.10;99.90;;;;;;4810518;29;19961;-72
2023/06/13 01:31:06;;;;;;;;;;;13.10;99.90;;;;;;4918790;29;19914;-73
2023/06/13 01:33:35;;;;;;;;;;;13.10;99.90;;;;;;4933181;29;19929;-73
2023/06/13 01:36:01;;;;;;;;;;;13.10;99.90;;;;;;4928069;29;19915;-73
2023/06/13 01:38:29;;;;;;;;;;;13.00;99.90;;;;;;4937993;29;20037;-72
2023/06/13 01:40:55;;;;;;;;;;;13.00;99.90;;;;;;4925170;29;20001;-73
2023/06/13 01:43:21;;;;;;;;;;;13.00;99.90;;;;;;4930329;29;20125;-72
2023/06/13 01:45:50;;;;;;;;;;;13.00;99.90;;;;;;4906474;29;19911;-73
2023/06/13 01:48:34;;;;;;;;;;;13.00;99.90;;;;;;4930979;29;20489;-73
2023/06/13 01:51:00;;;;;;;;;;;13.00;99.90;;;;;;4928844;29;19915;-73
2023/06/13 01:53:37;;;;;;;;;;;13.00;99.90;;;;;;4926075;29;19927;-73
2023/06/13 01:56:12;;;;;;;;;;;13.00;99.90;;;;;;4934197;29;19930;-73
2023/06/13 01:58:54;;;;;;;;;;;12.90;99.90;;;;;;4925781;29;19949;-73
2023/06/13 02:01:25;;;;;;;;;;;12.90;99.90;;;;;;4932562;29;19922;-73
2023/06/13 02:03:53;;;;;;;;;;;12.80;99.90;;;;;;4932462;29;20577;-73
2023/06/13 02:06:20;;;;;;;;;;;12.80;99.90;;;;;;4936781;28;19939;-73
2023/06/13 02:08:47;;;;;;;;;;;12.80;99.90;;;;;;4931061;29;19910;-72
2023/06/13 02:11:15;;;;;;;;;;;12.80;99.90;;;;;;4914838;29;20404;-73
2023/06/13 02:13:44;;;;;;;;;;;12.70;99.90;;;;;;4934222;29;20001;-72
2023/06/13 02:16:17;;;;;;;;;;;12.70;99.90;;;;;;4924271;29;19973;-73
2023/06/13 02:18:44;;;;;;;;;;;12.70;99.90;;;;;;4934007;29;20268;-73
2023/06/13 02:21:09;;;;;;;;;;;12.60;99.90;;;;;;4937202;29;20304;-73
2023/06/13 02:23:37;;;;;;;;;;;12.70;99.90;;;;;;4927936;29;19917;-73
2023/06/13 02:26:07;;;;;;;;;;;12.60;99.90;;;;;;4938307;29;19919;-73
2023/06/13 02:28:33;;;;;;;;;;;12.60;99.90;;;;;;4934718;29;19911;-73
2023/06/13 02:31:02;;;;;;;;;;;12.50;99.90;;;;;;4913809;29;19917;-73
2023/06/13 02:33:30;;;;;;;;;;;12.50;99.90;;;;;;4936854;29;19926;-73
2023/06/13 02:35:57;;;;;;;;;;;12.40;99.90;;;;;;4931230;29;20017;-73
2023/06/13 02:38:25;;;;;;;;;;;12.40;99.90;;;;;;4936043;29;19918;-73
2023/06/13 02:40:50;;;;;;;;;;;12.40;99.90;;;;;;4934291;29;19918;-73
2023/06/13 02:43:16;;;;;;;;;;;12.40;99.90;;;;;;4937178;29;19911;-73
2023/06/13 02:45:43;;;;;;;;;;;12.40;99.90;;;;;;4931350;29;19910;-72
2023/06/13 02:48:11;;;;;;;;;;;12.40;99.90;;;;;;4924103;29;20993;-72
2023/06/13 02:50:41;;;;;;;;;;;12.30;99.90;;;;;;4918297;29;19933;-73
2023/06/13 02:53:09;;;;;;;;;;;12.30;99.90;;;;;;4933878;29;19918;-73
2023/06/13 02:55:36;;;;;;;;;;;12.30;99.90;;;;;;4931367;29;20287;-73
2023/06/13 02:58:04;;;;;;;;;;;12.30;99.90;;;;;;4929752;29;19940;-72
2023/06/13 03:00:30;;;;;;;;;;;12.30;99.90;;;;;;4936663;29;19926;-72
2023/06/13 03:03:10;;;;;;;;;;;12.30;99.90;;;;;;4938763;29;19958;-73
2023/06/13 03:05:36;;;;;;;;;;;12.20;99.90;;;;;;4929402;29;19958;-73
2023/06/13 03:08:02;;;;;;;;;;;12.30;99.90;;;;;;4934213;29;19919;-72
2023/06/13 03:10:32;;;;;;;;;;;12.20;99.90;;;;;;4933022;29;19970;-72
2023/06/13 03:12:59;;;;;;;;;;;12.20;99.90;;;;;;4939040;29;19966;-73
2023/06/13 03:15:27;;;;;;;;;;;12.20;99.90;;;;;;4934972;29;19919;-72
2023/06/13 03:18:03;;;;;;;;;;;12.30;99.90;;;;;;4927266;29;19922;-73
2023/06/13 03:20:31;;;;;;;;;;;12.30;99.90;;;;;;4939800;29;19917;-72
2023/06/13 03:22:56;;;;;;;;;;;12.30;99.90;;;;;;4928038;29;20343;-72
2023/06/13 03:25:24;;;;;;;;;;;12.30;99.90;;;;;;4930768;29;19947;-73
2023/06/13 03:27:52;;;;;;;;;;;12.40;99.90;;;;;;4929255;29;19918;-73
2023/06/13 03:30:17;;;;;;;;;;;12.40;99.90;;;;;;4937468;29;19912;-73
2023/06/13 03:32:44;;;;;;;;;;;12.40;99.90;;;;;;4936613;29;20319;-72
2023/06/13 03:35:15;;;;;;;;;;;12.40;99.90;;;;;;4933882;29;19946;-73
2023/06/13 03:37:43;;;;;;;;;;;12.50;99.90;;;;;;4926833;29;19914;-73
2023/06/13 03:40:08;;;;;;;;;;;12.60;99.90;;;;;;4930177;29;19910;-73
2023/06/13 03:42:40;;;;;;;;;;;12.60;99.90;;;;;;4935720;29;19981;-72
2023/06/13 03:45:08;;;;;;;;;;;12.70;99.90;;;;;;4932865;29;19945;-73
2023/06/13 03:47:37;;;;;;;;;;;12.70;99.90;;;;;;4933518;29;19918;-73
2023/06/13 03:50:03;;;;;;;;;;;12.80;99.90;;;;;;4933552;29;19918;-73
2023/06/13 03:52:29;;;;;;;;;;;12.80;99.90;;;;;;4937196;29;20318;-73
2023/06/13 03:54:55;;;;;;;;;;;12.90;99.90;;;;;;4933724;29;19919;-72
2023/06/13 03:57:24;;;;;;;;;;;13.00;99.90;;;;;;4929734;29;20765;-72
2023/06/13 03:59:51;;;;;;;;;;;13.00;99.90;;;;;;4938997;29;19961;-72
2023/06/13 04:02:19;;;;;;;;;;;13.10;99.90;;;;;;4927226;29;19914;-73
2023/06/13 04:04:46;;;;;;;;;;;13.20;99.90;;;;;;4938275;29;19989;-73
2023/06/13 04:07:12;;;;;;;;;;;13.30;99.90;;;;;;4928267;29;19910;-73
2023/06/13 04:09:39;;;;;;;;;;;13.30;99.90;;;;;;4928703;29;19926;-73
2023/06/13 04:12:05;;;;;;;;;;;13.40;99.90;;;;;;4913637;29;19919;-73
2023/06/13 04:14:32;;;;;;;;;;;13.40;99.90;;;;;;4930162;28;19966;-72
2023/06/13 04:16:59;;;;;;;;;;;13.40;99.90;;;;;;4905995;29;19915;-73
2023/06/13 04:19:31;;;;;;;;;;;13.40;99.90;;;;;;4928364;29;19970;-73
2023/06/13 04:22:06;;;;;;;;;;;13.50;99.90;;;;;;4925520;29;19919;-73
2023/06/13 04:24:35;;;;;;;;;;;13.60;99.90;;;;;;4934252;29;20013;-73
2023/06/13 04:27:03;;;;;;;;;;;13.70;99.90;;;;;;4921667;29;19922;-73
2023/06/13 04:29:29;;;;;;;;;;;13.80;99.90;;;;;;4930250;29;19911;-73
2023/06/13 04:31:57;;;;;;;;;;;13.90;99.90;;;;;;4932720;29;19965;-73
2023/06/13 04:34:27;;;;;;;;;;;14.00;99.90;;;;;;4908740;29;19919;-73
2023/06/13 04:36:55;;;;;;;;;;;14.20;99.90;;;;;;4912615;29;20597;-73
2023/06/13 04:39:28;;;;;;;;;;;14.30;99.90;;;;;;4927843;29;20013;-73
2023/06/13 04:42:01;;;;;;;;;;;14.40;99.90;;;;;;4928850;29;20252;-73
2023/06/13 04:44:33;;;;;;;;;;;14.70;99.90;;;;;;4948232;28;19957;-73
2023/06/13 04:47:01;;;;;;;;;;;14.90;99.90;;;;;;4933683;29;19917;-73
2023/06/13 04:49:30;;;;;;;;;;;15.10;99.90;;;;;;4930052;29;19925;-73
2023/06/13 04:51:57;;;;;;;;;;;15.30;99.90;;;;;;4931851;29;19919;-73
2023/06/13 04:54:28;;;;;;;;;;;15.20;99.90;;;;;;4925394;29;20018;-73
2023/06/13 04:56:55;;;;;;;;;;;15.10;99.90;;;;;;4928211;28;20101;-73
2023/06/13 04:59:20;;;;;;;;;;;15.10;99.90;;;;;;4931752;29;19917;-72
2023/06/13 05:01:47;;;;;;;;;;;15.10;99.90;;;;;;4934629;29;19910;-72
2023/06/13 05:04:14;;;;;;;;;;;15.20;99.90;;;;;;4928601;29;19965;-73
2023/06/13 05:06:44;;;;;;;;;;;15.10;99.90;;;;;;4928055;29;19915;-73
2023/06/13 05:09:10;;;;;;;;;;;15.00;99.90;;;;;;4919505;29;19918;-73
2023/06/13 05:11:37;;;;;;;;;;;14.90;99.90;;;;;;4933488;29;19914;-73
2023/06/13 05:14:04;;;;;;;;;;;14.90;99.90;;;;;;4929144;29;19986;-73
2023/06/13 05:16:31;;;;;;;;;;;14.80;99.90;;;;;;4929618;28;19915;-72
2023/06/13 05:19:01;;;;;;;;;;;14.80;99.90;;;;;;4926678;29;19919;-73
2023/06/13 05:21:31;;;;;;;;;;;14.80;99.90;;;;;;4930872;29;19915;-73
2023/06/13 05:23:57;;;;;;;;;;;14.90;99.90;;;;;;4925923;29;20388;-73
2023/06/13 05:26:23;;;;;;;;;;;15.00;99.90;;;;;;4912487;29;20051;-72
2023/06/13 05:28:49;;;;;;;;;;;15.10;99.90;;;;;;4926660;29;20368;-72
2023/06/13 05:31:17;;;;;;;;;;;15.20;99.90;;;;;;4935228;29;20257;-73
2023/06/13 05:33:46;;;;;;;;;;;15.40;99.90;;;;;;4905820;29;19918;-72
2023/06/13 05:36:18;;;;;;;;;;;15.60;99.90;;;;;;4933686;29;19918;-72
2023/06/13 05:38:44;;;;;;;;;;;15.80;99.90;;;;;;4931159;29;19915;-72
2023/06/13 05:41:12;;;;;;;;;;;16.10;99.90;;;;;;4935333;28;19918;-72
2023/06/13 05:43:39;;;;;;;;;;;16.20;99.90;;;;;;4935824;29;19911;-72
2023/06/13 05:46:05;;;;;;;;;;;16.20;99.90;;;;;;4914930;29;19918;-72
2023/06/13 05:48:35;;;;;;;;;;;16.30;99.90;;;;;;4929594;28;19919;-73
2023/06/13 05:51:04;;;;;;;;;;;16.30;99.90;;;;;;4937707;29;19918;-72
2023/06/13 05:53:30;;;;;;;;;;;16.10;99.90;;;;;;4931653;29;19974;-73
2023/06/13 05:55:58;;;;;;;;;;;16.50;99.90;;;;;;4925021;29;19950;-73
2023/06/13 05:58:25;;;;;;;;;;;17.60;99.90;;;;;;4935795;29;19919;-73
2023/06/13 06:00:52;;;;;;;;;;;18.30;98.50;;;;;;4935320;28;19911;-73
2023/06/13 06:03:18;;;;;;;;;;;19.00;97.20;;;;;;4935904;29;19926;-72
2023/06/13 06:05:46;;;;;;;;;;;19.50;97.10;;;;;;4935567;29;19977;-73
2023/06/13 06:08:18;;;;;;;;;;;20.10;95.30;;;;;;4941089;29;19917;-73
2023/06/13 06:10:44;;;;;;;;;;;20.20;93.90;;;;;;4927767;29;20434;-73
2023/06/13 06:13:14;;;;;;;;;;;19.50;94.80;;;;;;4933260;28;19914;-72
2023/06/13 06:15:40;;;;;;;;;;;19.80;94.90;;;;;;4923906;29;20643;-73
2023/06/13 06:18:08;;;;;;;;;;;19.90;94.30;;;;;;4949474;28;20348;-73
2023/06/13 06:20:35;;;;;;;;;;;19.40;94.20;;;;;;4933308;29;20273;-73
2023/06/13 06:23:02;;;;;;;;;;;19.30;94.20;;;;;;4934857;29;19923;-72
2023/06/13 06:25:35;;;;;;;;;;;20.20;93.70;;;;;;4938081;28;20361;-73
2023/06/13 06:28:04;;;;;;;;;;;20.90;91.70;;;;;;4932847;29;20001;-73
2023/06/13 06:30:31;;;;;;;;;;;20.80;90.30;;;;;;4937493;29;20010;-73
2023/06/13 06:32:57;;;;;;;;;;;21.30;90.50;;;;;;4941378;29;19937;-72
2023/06/13 06:35:23;;;;;;;;;;;22.00;88.90;;;;;;4935420;29;19910;-73
2023/06/13 06:37:49;;;;;;;;;;;22.00;84.20;;;;;;4933841;29;19910;-73
2023/06/13 06:40:16;;;;;;;;;;;21.30;83.90;;;;;;4936589;29;19915;-73
2023/06/13 06:42:42;;;;;;;;;;;21.50;84.80;;;;;;4928245;29;19998;-73
2023/06/13 06:45:12;;;;;;;;;;;21.70;84.80;;;;;;4932559;28;19993;-73
2023/06/13 06:47:40;;;;;;;;;;;22.90;81.50;;;;;;4931054;29;19977;-72
2023/06/13 06:50:06;;;;;;;;;;;22.80;79.70;;;;;;4937187;29;20001;-72
2023/06/13 06:52:33;;;;;;;;;;;23.80;75.50;;;;;;4931948;28;20058;-72
2023/06/13 06:54:59;;;;;;;;;;;23.90;73.90;;;;;;4937595;29;19918;-72
2023/06/13 06:57:26;;;;;;;;;;;24.10;74.00;;;;;;4932992;29;19926;-72
2023/06/13 06:59:53;;;;;;;;;;;25.80;71.40;;;;;;4933274;29;19919;-72
2023/06/13 07:02:19;;;;;;;;;;;26.60;69.00;;;;;;4907147;29;19911;-72
2023/06/13 07:04:45;;;;;;;;;;;26.50;67.80;;;;;;4939064;29;19918;-72
2023/06/13 07:07:11;;;;;;;;;;;25.50;68.00;;;;;;4927326;29;19970;-71
2023/06/13 07:09:37;;;;;;;;;;;24.90;70.30;;;;;;4933307;29;19915;-72
2023/06/13 07:12:05;;;;;;;;;;;25.90;68.20;;;;;;4936076;29;19965;-72
2023/06/13 07:14:32;;;;;;;;;;;24.40;69.10;;;;;;4927563;29;19919;-72
2023/06/13 07:16:58;;;;;;;;;;;24.80;68.30;;;;;;4934140;29;20022;-73
2023/06/13 07:19:29;;;;;;;;;;;25.70;66.30;;;;;;4907971;29;20002;-72
2023/06/13 07:21:56;;;;;;;;;;;24.80;67.00;;;;;;4926384;29;19918;-73
2023/06/13 07:24:22;;;;;;;;;;;25.20;66.80;;;;;;4935498;29;19919;-73
2023/06/13 07:26:48;;;;;;;;;;;26.60;65.30;;;;;;4933133;29;20316;-73
2023/06/13 07:29:15;;;;;;;;;;;27.60;63.60;;;;;;4933408;29;19918;-73
2023/06/13 07:31:40;;;;;;;;;;;28.20;63.60;;;;;;4912820;29;19962;-73
2023/06/13 07:34:07;;;;;;;;;;;27.60;61.30;;;;;;4930208;29;19910;-73
2023/06/13 07:36:37;;;;;;;;;;;27.30;62.50;;;;;;4909790;29;20092;-73
2023/06/13 07:39:10;;;;;;;;;;;26.50;62.80;;;;;;4947023;28;20523;-73
2023/06/13 07:41:46;;;;;;;;;;;26.80;62.90;;;;;;4938881;29;19914;-74
2023/06/13 07:44:12;;;;;;;;;;;26.70;61.80;;;;;;4933573;29;20360;-74
2023/06/13 07:46:44;;;;;;;;;;;26.80;61.50;;;;;;4924547;29;19917;-73
2023/06/13 07:49:10;;;;;;;;;;;27.90;60.10;;;;;;4934583;29;19915;-73
2023/06/13 07:51:35;;;;;;;;;;;27.10;59.50;;;;;;4930690;29;19930;-72
2023/06/13 07:54:06;;;;;;;;;;;25.40;60.70;;;;;;4929623;29;19986;-74
2023/06/13 07:56:32;;;;;;;;;;;27.40;59.70;;;;;;4936767;29;19965;-73
2023/06/13 07:58:59;;;;;;;;;;;27.00;60.00;;;;;;4931908;29;19911;-72
2023/06/13 08:01:25;;;;;;;;;;;26.90;59.20;;;;;;4927805;29;19918;-73
2023/06/13 08:03:53;;;;;;;;;;;26.70;59.80;;;;;;4931236;28;19911;-73
2023/06/13 08:06:18;;;;;;;;;;;28.40;58.00;;;;;;4927802;29;19911;-72
2023/06/13 08:08:46;;;;;;;;;;;26.70;59.00;;;;;;4933345;29;19929;-73
2023/06/13 08:11:12;;;;;;;;;;;26.70;59.50;;;;;;4929233;29;19911;-72
2023/06/13 08:13:37;;;;;;;;;;;25.70;61.00;;;;;;4925932;29;20021;-72
2023/06/13 08:16:03;;;;;;;;;;;26.70;59.70;;;;;;4930522;28;20410;-73
2023/06/13 08:18:30;;;;;;;;;;;27.90;58.60;;;;;;4930209;29;19950;-73
2023/06/13 08:20:55;;;;;;;;;;;28.40;57.80;;;;;;4928815;29;20272;-71
2023/06/13 08:23:24;;;;;;;;;;;31.10;54.80;;;;;;4930396;29;19915;-75
2023/06/13 08:25:53;;;;;;;;;;;32.30;53.30;;;;;;4906596;29;19914;-74
2023/06/13 08:28:18;;;;;;;;;;;32.40;50.40;;;;;;4933954;29;20296;-74
2023/06/13 08:30:52;;;;;;;;;;;30.00;50.50;;;;;;4927882;29;19954;-74
2023/06/13 08:33:21;;;;;;;;;;;29.60;48.90;;;;;;4931681;29;19918;-75
2023/06/13 08:35:46;;;;;;;;;;;29.40;50.80;;;;;;4926672;29;19910;-75
2023/06/13 08:38:12;;;;;;;;;;;30.90;51.10;;;;;;4929861;29;19965;-77
2023/06/13 08:40:39;;;;;;;;;;;30.00;52.40;;;;;;4907969;29;19919;-74
2023/06/13 08:43:09;;;;;;;;;;;30.10;52.30;;;;;;4922806;29;19915;-74
2023/06/13 08:45:36;;;;;;;;;;;30.20;50.40;;;;;;4936896;28;20360;-77
2023/06/13 08:48:08;;;;;;;;;;;30.60;50.80;;;;;;4930731;29;19925;-77
2023/06/13 08:50:39;;;;;;;;;;;30.40;50.40;;;;;;4933327;29;19917;-77
2023/06/13 08:53:06;;;;;;;;;;;30.80;51.50;;;;;;4923809;29;19925;-77
2023/06/13 08:55:36;;;;;;;;;;;30.90;49.50;;;;;;4927569;29;19918;-77
2023/06/13 08:58:04;;;;;;;;;;;29.00;50.70;;;;;;4935872;29;19985;-76
2023/06/13 09:00:35;;;;;;;;;;;28.50;51.00;;;;;;4928428;29;19918;-77
2023/06/13 09:03:03;;;;;;;;;;;28.40;51.20;;;;;;4931339;29;20053;-77
2023/06/13 09:05:34;;;;;;;;;;;29.10;50.50;;;;;;4928301;29;19911;-74
2023/06/13 09:08:00;;;;;;;;;;;27.10;50.50;;;;;;4927947;29;20636;-75
2023/06/13 09:10:26;;;;;;;;;;;28.30;52.30;;;;;;4931408;29;19918;-75
2023/06/13 09:12:52;;;;;;;;;;;29.00;51.60;;;;;;4930044;29;19919;-76
2023/06/13 09:15:21;;;;;;;;;;;32.20;47.70;;;;;;4932681;28;19911;-76
2023/06/13 09:17:47;;;;;;;;;;;30.40;45.70;;;;;;4925086;29;19911;-77
2023/06/13 09:20:13;;;;;;;;;;;30.50;46.30;;;;;;4933723;29;20009;-77
2023/06/13 09:22:40;;;;;;;;;;;30.30;46.20;;;;;;4933655;29;20001;-77
2023/06/13 09:25:08;;;;;;;;;;;29.20;46.30;;;;;;4929669;29;20373;-76
2023/06/13 09:27:33;;;;;;;;;;;29.90;45.90;;;;;;4935179;29;19917;-73
2023/06/13 09:30:02;;;;;;;;;;;29.70;45.60;;;;;;4934918;29;19915;-73
2023/06/13 09:32:28;;;;;;;;;;;29.30;45.30;;;;;;4931040;29;20018;-73
2023/06/13 09:34:53;;;;;;;;;;;27.70;47.20;;;;;;4933355;29;20001;-72
2023/06/13 09:37:19;;;;;;;;;;;27.60;47.60;;;;;;4937426;29;19921;-72
2023/06/13 09:39:45;;;;;;;;;;;27.90;47.50;;;;;;4929352;29;20538;-73
2023/06/13 09:42:11;;;;;;;;;;;29.10;46.20;;;;;;4932504;29;20339;-73
2023/06/13 09:44:37;;;;;;;;;;;27.60;46.70;;;;;;4931779;29;20009;-72
2023/06/13 09:47:02;;;;;;;;;;;27.20;47.50;;;;;;4938549;29;19961;-72
2023/06/13 09:49:29;;;;;;;;;;;26.40;48.10;;;;;;4930753;29;19941;-73
2023/06/13 09:51:54;;;;;;;;;;;27.20;48.70;;;;;;4938615;29;20017;-70
2023/06/13 09:54:20;;;;;;;;;;;28.40;48.50;;;;;;4941029;28;19921;-70
2023/06/13 09:56:46;;;;;;;;;;;28.80;45.50;;;;;;4926983;29;19915;-73
2023/06/13 09:59:15;;;;;;;;;;;28.10;47.40;;;;;;4937468;29;19954;-72
2023/06/13 10:01:40;;;;;;;;;;;27.50;46.20;;;;;;4927627;28;19997;-73
2023/06/13 10:04:06;;;;;;;;;;;27.80;48.40;;;;;;4935618;29;20001;-73
2023/06/13 10:06:32;;;;;;;;;;;27.70;47.00;;;;;;4935600;29;20029;-72
2023/06/13 10:08:58;;;;;;;;;;;27.30;47.10;;;;;;4930222;29;19917;-73
2023/06/13 10:11:26;;;;;;;;;;;27.50;47.50;;;;;;4932201;29;19930;-72
2023/06/13 10:13:56;;;;;;;;;;;27.60;47.50;;;;;;4926955;28;19963;-73
2023/06/13 10:16:21;;;;;;;;;;;28.10;45.60;;;;;;4912810;29;19915;-73
2023/06/13 10:18:48;;;;;;;;;;;29.20;44.10;;;;;;4930821;29;20348;-73
2023/06/13 10:21:14;;;;;;;;;;;29.70;45.60;;;;;;4931637;29;19923;-71
2023/06/13 10:23:42;;;;;;;;;;;31.30;45.30;;;;;;4928418;29;19914;-73
2023/06/13 10:26:09;;;;;;;;;;;29.50;46.10;;;;;;4926193;29;19921;-73
2023/06/13 10:28:59;;;;;;;;;;;29.00;45.90;;;;;;4927561;28;20383;-72
2023/06/13 10:31:44;;;;;;;;;;;30.50;45.90;;;;;;4933040;29;19911;-72
2023/06/13 10:34:18;;;;;;;;;;;30.30;43.90;;;;;;4928937;29;19940;-73
2023/06/13 10:36:50;;;;;;;;;;;28.90;44.50;;;;;;4928559;29;20333;-73
2023/06/13 10:39:35;;;;;;;;;;;29.50;44.30;;;;;;4929040;29;19954;-72
2023/06/13 10:42:03;;;;;;;;;;;28.70;44.70;;;;;;4930185;29;19918;-73
2023/06/13 10:44:28;;;;;;;;;;;28.80;46.70;;;;;;4931285;28;19942;-73
2023/06/13 10:46:54;;;;;;;;;;;29.70;45.90;;;;;;4930878;29;20347;-73
2023/06/13 10:49:21;;;;;;;;;;;29.10;46.30;;;;;;4930866;29;20280;-73
2023/06/13 10:51:46;;;;;;;;;;;29.50;46.20;;;;;;4934513;29;20399;-73
2023/06/13 10:54:13;;;;;;;;;;;30.20;45.60;;;;;;4926697;28;19910;-80
2023/06/13 10:56:42;;;;;;;;;;;28.20;44.70;;;;;;4931715;29;19915;-78
2023/06/13 10:59:23;;;;;;;;;;;27.00;46.10;;;;;;4936516;28;19953;-77
2023/06/13 11:01:51;;;;;;;;;;;25.70;47.10;;;;;;4933600;29;19990;-76
2023/06/13 11:04:17;;;;;;;;;;;25.10;48.50;;;;;;4928191;29;19911;-76
2023/06/13 11:06:44;;;;;;;;;;;24.60;49.30;;;;;;4883371;29;19919;-76
2023/06/13 11:09:20;;;;;;;;;;;24.20;47.20;;;;;;4883008;29;20046;-76
2023/06/13 11:11:56;;;;;;;;;;;23.90;50.40;;;;;;4887432;29;19919;-77
2023/06/13 11:14:27;;;;;;;;;;;23.90;52.50;;;;;;4881631;29;20334;-77
2023/06/13 11:16:53;;;;;;;;;;;24.00;51.50;;;;;;4880135;29;19919;-76
2023/06/13 11:19:24;;;;;;;;;;;23.80;53.30;;;;;;4888778;29;19922;-76
2023/06/13 11:21:58;;;;;;;;;;;23.50;53.90;;;;;;4884074;29;20717;-76
2023/06/13 11:24:28;;;;;;;;;;;23.40;54.50;;;;;;4882050;29;19918;-76
2023/06/13 11:26:57;;;;;;;;;;;23.30;53.60;;;;;;4895473;29;21191;-77
2023/06/13 11:29:23;;;;;;;;;;;23.70;54.20;;;;;;4930423;29;20700;-76
2023/06/13 11:31:53;;;;;;;;;;;23.50;54.60;;;;;;4898999;29;19923;-76
2023/06/13 11:34:22;;;;;;;;;;;24.00;54.50;;;;;;4883716;29;19919;-77
2023/06/13 11:36:49;;;;;;;;;;;24.50;53.90;;;;;;4886956;29;20479;-76
2023/06/13 11:39:32;;;;;;;;;;;24.40;53.90;;;;;;4908630;29;20428;-76
2023/06/13 11:42:08;;;;;;;;;;;24.70;54.20;;;;;;4896423;29;19926;-77
2023/06/13 11:44:37;;;;;;;;;;;23.90;54.10;;;;;;4902964;29;20424;-76
2023/06/13 11:47:06;;;;;;;;;;;23.50;53.40;;;;;;4892037;29;19919;-76
2023/06/13 11:49:31;;;;;;;;;;;23.40;54.30;;;;;;4892187;29;21031;-76
2023/06/13 11:51:57;;;;;;;;;;;23.40;54.50;;;;;;4881720;29;20030;-76
2023/06/13 11:54:30;;;;;;;;;;;23.10;53.30;;;;;;4889177;29;20816;-76
2023/06/13 11:56:55;;;;;;;;;;;23.00;50.90;;;;;;4930139;29;19927;-69
2023/06/13 11:59:22;;;;;;;;;;;23.00;51.40;;;;;;4931309;29;19915;-68
2023/06/13 12:01:54;;;;;;;;;;;22.70;52.60;;;;;;4935674;29;19922;-68
2023/06/13 12:04:21;;;;;;;;;;;22.40;53.60;;;;;;4929821;29;20747;-67
2023/06/13 12:06:47;;;;;;;;;;;22.40;52.30;;;;;;4926412;29;19921;-68
2023/06/13 12:09:14;;;;;;;;;;;22.50;53.70;;;;;;4934447;29;19918;-68
2023/06/13 12:11:40;;;;;;;;;;;22.90;54.50;;;;;;4931638;29;20009;-68
2023/06/13 12:14:06;;;;;;;;;;;22.50;54.10;;;;;;4928328;29;19918;-68
2023/06/13 12:16:36;;;;;;;;;;;22.70;54.10;;;;;;4929784;29;19923;-73
2023/06/13 12:19:05;;;;;;;;;;;22.60;53.70;;;;;;4933825;29;20328;-71
2023/06/13 12:21:32;;;;;;;;;;;22.60;53.10;;;;;;4933823;29;19919;-72
2023/06/13 12:24:00;;;;;;;;;;;22.60;53.90;;;;;;4935362;29;19911;-72
2023/06/13 12:26:28;;;;;;;;;;;22.70;54.30;;;;;;4927134;29;19994;-72
2023/06/13 12:28:59;;;;;;;;;;;22.80;55.50;;;;;;4933937;29;19919;-71
2023/06/13 12:31:36;;;;;;;;;;;22.70;56.50;;;;;;4938001;29;19919;-72
2023/06/13 12:34:16;;;;;;;;;;;22.80;56.40;;;;;;4913652;29;20013;-72
2023/06/13 12:36:46;;;;;;;;;;;22.80;55.50;;;;;;4930292;29;19918;-72
2023/06/13 12:39:14;;;;;;;;;;;23.20;55.80;;;;;;4931367;29;19910;-72
2023/06/13 12:41:43;;;;;;;;;;;23.70;54.50;;;;;;4929746;29;19914;-72
2023/06/13 12:44:09;;;;;;;;;;;23.90;53.90;;;;;;4923787;29;20399;-71
2023/06/13 12:46:38;;;;;;;;;;;24.20;53.50;;;;;;4930893;29;19993;-71
2023/06/13 12:49:08;;;;;;;;;;;23.90;53.50;;;;;;4931290;29;19961;-71
2023/06/13 12:51:33;;;;;;;;;;;23.50;52.00;;;;;;4925733;29;20292;-71
2023/06/13 12:54:15;;;;;;;;;;;23.10;52.90;;;;;;4931520;29;19922;-71
2023/06/13 12:56:53;;;;;;;;;;;22.90;54.20;;;;;;4928115;29;20381;-71
2023/06/13 12:59:41;;;;;;;;;;;22.80;53.80;;;;;;4935980;29;19921;-71
2023/06/13 13:02:19;;;;;;;;;;;23.10;55.90;;;;;;4936017;29;19915;-71
2023/06/13 13:04:48;;;;;;;;;;;22.90;54.50;;;;;;4921856;29;20336;-72
2023/06/13 13:07:18;;;;;;;;;;;23.20;55.40;;;;;;4932708;29;19918;-71
2023/06/13 13:09:44;;;;;;;;;;;23.40;55.10;;;;;;4910762;29;20006;-70
2023/06/13 13:12:13;;;;;;;;;;;23.10;53.80;;;;;;4926825;29;20465;-71
2023/06/13 13:14:38;;;;;;;;;;;22.90;54.70;;;;;;4916623;29;19997;-71
2023/06/13 13:17:04;;;;;;;;;;;22.90;55.40;;;;;;4929079;28;20412;-71
2023/06/13 13:19:31;;;;;;;;;;;22.90;54.80;;;;;;4931631;29;19919;-71
2023/06/13 13:21:59;;;;;;;;;;;22.80;56.20;;;;;;4929595;29;19996;-71
2023/06/13 13:24:26;;;;;;;;;;;23.00;54.70;;;;;;4930072;28;19918;-71
2023/06/13 13:26:53;;;;;;;;;;;22.70;54.60;;;;;;4932557;29;19977;-71
2023/06/13 13:29:19;;;;;;;;;;;22.60;55.00;;;;;;4932592;28;19941;-70
2023/06/13 13:31:44;;;;;;;;;;;22.50;54.50;;;;;;4927243;29;20372;-71
2023/06/13 13:34:11;;;;;;;;;;;22.60;54.60;;;;;;4934219;29;19946;-71
2023/06/13 13:36:38;;;;;;;;;;;22.80;53.10;;;;;;4933732;29;20637;-71
2023/06/13 13:39:05;;;;;;;;;;;22.80;53.20;;;;;;4933540;29;19925;-71
2023/06/13 13:41:35;;;;;;;;;;;22.90;53.50;;;;;;4906583;29;20646;-71
2023/06/13 13:44:01;;;;;;;;;;;22.90;53.70;;;;;;4925800;29;19926;-71
2023/06/13 13:46:27;;;;;;;;;;;22.60;52.60;;;;;;4932758;29;20368;-71
2023/06/13 13:48:53;;;;;;;;;;;22.50;52.90;;;;;;4932063;29;19999;-70
2023/06/13 13:51:19;;;;;;;;;;;22.80;50.90;;;;;;4925659;28;19942;-71
2023/06/13 13:53:45;;;;;;;;;;;22.80;52.90;;;;;;4929450;29;19918;-71
2023/06/13 13:56:11;;;;;;;;;;;22.40;54.90;;;;;;4926971;29;19917;-71
2023/06/13 13:58:40;;;;;;;;;;;22.50;55.70;;;;;;4932372;29;19921;-70
2023/06/13 14:01:08;;;;;;;;;;;22.60;57.00;;;;;;4933029;29;20264;-71
2023/06/13 14:03:43;;;;;;;;;;;22.60;55.40;;;;;;4939039;29;19965;-71
2023/06/13 14:06:09;;;;;;;;;;;22.60;56.10;;;;;;4925418;29;20526;-71
2023/06/13 14:08:36;;;;;;;;;;;22.80;57.00;;;;;;4929720;28;19915;-72
2023/06/13 14:11:02;;;;;;;;;;;23.00;56.70;;;;;;4934097;29;20006;-71
2023/06/13 14:13:29;;;;;;;;;;;23.10;57.70;;;;;;4931051;29;20013;-71
2023/06/13 14:15:55;;;;;;;;;;;23.30;57.70;;;;;;4932926;28;20288;-72
2023/06/13 14:18:24;;;;;;;;;;;23.30;57.30;;;;;;4931883;28;19915;-71
2023/06/13 14:20:49;;;;;;;;;;;22.80;57.40;;;;;;4933288;29;20249;-70
2023/06/13 14:23:16;;;;;;;;;;;22.60;58.10;;;;;;4932843;29;19915;-71